createdAt,value
2023-02-11T00:01:35.255Z,29.60
2023-02-11T00:03:39.729Z,25.52
2023-02-11T00:05:42.524Z,28.25
2023-02-11T00:07:45.329Z,27.55
2023-02-11T00:09:48.096Z,28.30
2023-02-11T00:11:50.858Z,26.38
2023-02-11T00:13:53.680Z,28.58
2023-02-11T00:15:58.063Z,25.10
2023-02-11T00:18:00.811Z,27.42
2023-02-11T00:20:07.924Z,29.10
2023-02-11T00:22:11.036Z,25.52
2023-02-11T00:24:13.831Z,25.52
2023-02-11T00:26:19.143Z,26.67
2023-02-11T00:28:22.593Z,27.45
2023-02-11T00:30:25.747Z,24.13
2023-02-11T00:32:29.858Z,27.83
2023-02-11T00:34:32.935Z,28.20
2023-02-11T00:36:41.012Z,26.23
2023-02-11T00:38:44.661Z,28.00
2023-02-11T00:40:47.439Z,27.98
2023-02-11T00:42:50.242Z,26.65
2023-02-11T00:44:53.073Z,25.90
2023-02-11T00:46:55.857Z,28.63
2023-02-11T00:48:58.663Z,26.98
2023-02-11T00:51:01.485Z,26.67
2023-02-11T00:53:05.720Z,26.27
2023-02-11T00:55:09.193Z,28.73
2023-02-11T00:57:12.016Z,26.30
2023-02-11T00:59:14.860Z,26.75
2023-02-11T01:01:20.188Z,28.23
2023-02-11T01:03:23.030Z,26.77
2023-02-11T01:05:26.216Z,28.75
2023-02-11T01:07:29.474Z,28.67
2023-02-11T01:09:33.624Z,27.08
2023-02-11T01:11:36.758Z,26.42
2023-02-11T01:13:40.614Z,27.13
2023-02-11T01:15:43.406Z,27.30
2023-02-11T01:17:46.567Z,26.83
2023-02-11T01:19:49.468Z,26.27
2023-02-11T01:21:52.232Z,29.45
2023-02-11T01:23:58.013Z,25.90
2023-02-11T01:26:02.296Z,26.00
2023-02-11T01:28:05.424Z,27.45
2023-02-11T01:30:10.467Z,27.67
2023-02-11T01:34:16.004Z,27.38
2023-02-11T01:36:18.920Z,27.05
2023-02-11T01:38:24.328Z,25.75
2023-02-11T01:40:28.804Z,27.88
2023-02-11T01:42:33.804Z,24.50
2023-02-11T01:44:39.977Z,27.25
2023-02-11T01:46:43.012Z,26.90
2023-02-11T01:48:50.312Z,27.23
2023-02-11T01:50:58.074Z,24.13
2023-02-11T01:53:21.839Z,26.15
2023-02-11T01:55:47.535Z,25.00
2023-02-11T01:57:56.216Z,23.65
2023-02-11T02:00:05.477Z,24.45
2023-02-11T02:02:22.783Z,24.98
2023-02-11T02:04:31.467Z,24.08
2023-02-11T02:06:36.859Z,27.40
2023-02-11T02:08:44.812Z,25.90
2023-02-11T02:10:49.548Z,24.50
2023-02-11T02:12:54.085Z,25.27
2023-02-11T02:15:28.459Z,23.80
2023-02-11T02:17:41.796Z,24.38
2023-02-11T02:20:12.468Z,23.20
2023-02-11T02:22:47.781Z,24.48
2023-02-11T02:25:17.123Z,24.48
2023-02-11T02:27:30.868Z,22.70
2023-02-11T02:29:54.366Z,21.23
2023-02-11T02:32:27.903Z,23.58
2023-02-11T02:34:38.631Z,23.92
2023-02-11T02:36:48.838Z,23.42
2023-02-11T02:38:54.991Z,22.85
2023-02-11T02:41:02.468Z,24.42
2023-02-11T02:43:06.033Z,21.70
2023-02-11T02:45:12.081Z,21.40
2023-02-11T02:47:14.852Z,20.63
2023-02-11T02:49:19.173Z,21.67
2023-02-11T02:51:47.659Z,19.88
2023-02-11T02:54:00.157Z,20.38
2023-02-11T02:56:10.588Z,20.13
2023-02-11T02:58:47.213Z,20.80
2023-02-11T03:00:59.252Z,22.80
2023-02-11T03:03:17.606Z,24.90
2023-02-11T03:05:27.777Z,19.92
2023-02-11T03:07:41.077Z,20.48
2023-02-11T03:09:49.392Z,22.70
2023-02-11T03:11:52.310Z,20.63
2023-02-11T03:13:56.288Z,20.50
2023-02-11T03:16:03.356Z,21.53
2023-02-11T03:18:08.519Z,23.13
2023-02-11T03:20:15.949Z,21.75
2023-02-11T03:22:23.676Z,24.30
2023-02-11T03:24:31.603Z,22.40
2023-02-11T03:26:38.936Z,24.40
2023-02-11T03:28:48.855Z,24.10
2023-02-11T03:30:58.300Z,22.02
2023-02-11T03:33:08.039Z,22.40
2023-02-11T03:35:16.490Z,24.38
2023-02-11T03:37:24.592Z,24.55
2023-02-11T03:39:34.268Z,22.98
2023-02-11T03:41:38.130Z,23.38
2023-02-11T03:43:45.080Z,23.52
2023-02-11T03:45:51.062Z,25.17
2023-02-11T03:47:58.681Z,23.90
2023-02-11T03:50:05.552Z,25.00
2023-02-11T03:52:11.291Z,24.73
2023-02-11T03:54:21.446Z,25.40
2023-02-11T03:56:28.286Z,27.02
2023-02-11T03:58:31.582Z,27.98
2023-02-11T04:00:37.785Z,25.27
2023-02-11T04:02:41.689Z,25.50
2023-02-11T04:04:45.068Z,27.38
2023-02-11T04:06:47.855Z,26.88
2023-02-11T04:08:50.664Z,26.30
2023-02-11T04:10:54.757Z,25.67
2023-02-11T04:12:57.647Z,26.10
2023-02-11T04:15:00.403Z,25.15
2023-02-11T04:17:03.680Z,28.23
2023-02-11T04:19:06.384Z,26.50
2023-02-11T04:21:09.245Z,26.98
2023-02-11T04:23:12.057Z,28.13
2023-02-11T04:25:14.878Z,27.38
2023-02-11T04:27:18.944Z,26.75
2023-02-11T04:29:21.797Z,28.38
2023-02-11T04:31:24.759Z,27.60
2023-02-11T04:33:27.701Z,27.67
2023-02-11T04:35:30.409Z,27.85
2023-02-11T04:37:33.401Z,27.92
2023-02-11T04:39:36.411Z,25.85
2023-02-11T04:41:39.159Z,28.67
2023-02-11T04:43:43.253Z,24.02
2023-02-11T04:45:46.065Z,26.65
2023-02-11T04:47:48.854Z,28.25
2023-02-11T04:49:51.798Z,25.33
2023-02-11T04:51:54.620Z,27.02
2023-02-11T04:53:57.391Z,25.30
2023-02-11T04:56:00.284Z,28.05
2023-02-11T04:58:03.007Z,23.95
2023-02-11T05:00:08.256Z,24.38
2023-02-11T05:02:11.047Z,26.35
2023-02-11T05:04:13.881Z,24.73
2023-02-11T05:06:16.743Z,26.05
2023-02-11T05:08:19.517Z,27.33
2023-02-11T05:10:22.321Z,25.13
2023-02-11T05:12:25.123Z,26.25
2023-02-11T05:14:27.989Z,25.77
2023-02-11T05:16:32.356Z,26.95
2023-02-11T05:18:35.096Z,26.48
2023-02-11T05:20:39.154Z,25.17
2023-02-11T05:22:41.994Z,26.27
2023-02-11T05:24:44.742Z,27.08
2023-02-11T05:26:47.591Z,27.48
2023-02-11T05:28:50.371Z,27.00
2023-02-11T05:30:53.198Z,27.25
2023-02-11T05:32:57.606Z,27.23
2023-02-11T05:35:00.427Z,28.25
2023-02-11T05:37:03.247Z,26.67
2023-02-11T05:39:06.055Z,27.05
2023-02-11T05:41:08.912Z,26.35
2023-02-11T05:43:11.658Z,27.23
2023-02-11T05:45:14.527Z,26.42
2023-02-11T05:47:17.278Z,27.20
2023-02-11T05:49:21.473Z,28.40
2023-02-11T05:51:25.214Z,28.35
2023-02-11T05:53:27.985Z,27.77
2023-02-11T05:55:30.871Z,28.67
2023-02-11T05:57:33.615Z,26.23
2023-02-11T05:59:36.352Z,27.23
2023-02-11T06:01:39.157Z,25.88
2023-02-11T06:03:42.047Z,27.13
2023-02-11T06:05:46.762Z,25.75
2023-02-11T06:07:49.596Z,28.90
2023-02-11T06:09:52.438Z,26.73
2023-02-11T06:11:55.243Z,27.48
2023-02-11T06:13:58.016Z,24.88
2023-02-11T06:16:02.660Z,27.65
2023-02-11T06:18:06.230Z,28.45
2023-02-11T06:20:10.697Z,27.70
2023-02-11T06:22:14.857Z,29.45
2023-02-11T06:24:33.095Z,28.15
2023-02-11T06:26:40.450Z,26.85
2023-02-11T06:28:43.257Z,27.40
2023-02-11T06:30:46.381Z,28.10
2023-02-11T06:32:49.344Z,27.45
2023-02-11T06:34:52.201Z,28.45
2023-02-11T06:36:54.991Z,27.77
2023-02-11T06:38:59.181Z,27.45
2023-02-11T06:41:01.923Z,29.02
2023-02-11T06:43:04.656Z,26.38
2023-02-11T06:45:09.320Z,25.70
2023-02-11T06:47:12.195Z,27.33
2023-02-11T06:49:15.384Z,27.00
2023-02-11T06:51:18.437Z,27.35
2023-02-11T06:53:21.373Z,26.00
2023-02-11T06:55:25.489Z,27.65
2023-02-11T06:57:28.208Z,30.50
2023-02-11T06:59:30.969Z,27.17
2023-02-11T07:01:33.929Z,27.33
2023-02-11T07:03:38.507Z,25.02
2023-02-11T07:05:43.450Z,26.92
2023-02-11T07:09:48.905Z,26.75
2023-02-11T07:11:53.138Z,28.38
2023-02-11T07:13:57.915Z,23.80
2023-02-11T07:16:00.732Z,24.88
2023-02-11T07:18:04.095Z,27.10
2023-02-11T07:20:07.659Z,26.17
2023-02-11T07:22:10.450Z,24.90
2023-02-11T07:24:14.275Z,23.38
2023-02-11T07:26:18.492Z,25.80
2023-02-11T07:28:22.654Z,26.02
2023-02-11T07:30:25.488Z,25.10
2023-02-11T07:32:28.311Z,24.92
2023-02-11T07:34:31.120Z,26.27
2023-02-11T07:36:34.140Z,22.13
2023-02-11T07:38:37.837Z,23.15
2023-02-11T07:40:40.746Z,23.35
2023-02-11T07:42:43.557Z,26.33
2023-02-11T07:44:50.343Z,24.40
2023-02-11T07:46:53.377Z,24.02
2023-02-11T07:48:56.568Z,25.35
2023-02-11T07:51:06.794Z,22.83
2023-02-11T07:53:09.512Z,23.30
2023-02-11T07:55:12.463Z,21.70
2023-02-11T07:57:15.319Z,22.58
2023-02-11T07:59:18.055Z,25.08
2023-02-11T08:01:25.426Z,23.20
2023-02-11T08:03:28.468Z,24.00
2023-02-11T08:05:31.416Z,22.75
2023-02-11T08:07:34.273Z,24.27
2023-02-11T08:09:36.982Z,22.95
2023-02-11T08:11:39.875Z,22.73
2023-02-11T08:13:43.465Z,22.50
2023-02-11T08:15:46.264Z,23.25
2023-02-11T08:17:50.471Z,22.00
2023-02-11T08:19:53.274Z,24.55
2023-02-11T08:21:56.912Z,22.08
2023-02-11T08:23:59.756Z,22.35
2023-02-11T08:26:03.397Z,22.77
2023-02-11T08:28:06.248Z,23.75
2023-02-11T08:30:10.180Z,21.38
2023-02-11T08:32:12.996Z,20.83
2023-02-11T08:34:19.237Z,22.95
2023-02-11T08:36:24.275Z,23.02
2023-02-11T08:38:27.127Z,20.45
2023-02-11T08:40:29.954Z,20.33
2023-02-11T08:42:32.707Z,21.25
2023-02-11T08:44:35.491Z,22.50
2023-02-11T08:46:38.229Z,18.98
2023-02-11T08:48:41.059Z,19.85
2023-02-11T08:50:45.181Z,19.45
2023-02-11T08:52:47.962Z,21.55
2023-02-11T08:54:50.816Z,19.55
2023-02-11T08:56:53.706Z,20.30
2023-02-11T08:58:56.538Z,20.90
2023-02-11T09:00:59.820Z,20.08
2023-02-11T09:03:02.816Z,19.23
2023-02-11T09:05:05.967Z,21.38
2023-02-11T09:07:10.172Z,19.17
2023-02-11T09:09:14.861Z,20.02
2023-02-11T09:11:18.955Z,18.42
2023-02-11T09:13:21.694Z,19.67
2023-02-11T09:15:24.594Z,19.50
2023-02-11T09:17:33.932Z,18.65
2023-02-11T09:19:36.866Z,19.83
2023-02-11T09:21:39.851Z,17.15
2023-02-11T09:23:44.814Z,17.60
2023-02-11T09:27:51.346Z,19.77
2023-02-11T09:29:54.106Z,16.98
2023-02-11T09:31:57.014Z,18.67
2023-02-11T09:34:01.956Z,18.92
2023-02-11T09:36:06.144Z,17.13
2023-02-11T09:38:08.887Z,17.60
2023-02-11T09:40:13.944Z,18.52
2023-02-11T09:42:38.534Z,17.75
2023-02-11T09:44:41.645Z,16.17
2023-02-11T09:46:47.880Z,16.10
2023-02-11T09:48:53.444Z,16.85
2023-02-11T09:50:59.724Z,18.05
2023-02-11T09:53:05.663Z,17.13
2023-02-11T09:55:19.764Z,16.00
2023-02-11T09:57:28.805Z,16.40
2023-02-11T09:59:32.066Z,15.32
2023-02-11T10:01:42.839Z,15.50
2023-02-11T10:04:06.470Z,15.65
2023-02-11T10:06:30.659Z,15.48
2023-02-11T10:08:42.543Z,16.70
2023-02-11T10:10:53.159Z,16.23
2023-02-11T10:13:16.078Z,16.05
2023-02-11T10:15:37.551Z,14.80
2023-02-11T10:17:51.272Z,14.85
2023-02-11T10:20:06.818Z,17.30
2023-02-11T10:22:19.241Z,15.75
2023-02-11T10:24:23.170Z,17.63
2023-02-11T10:26:32.335Z,18.35
2023-02-11T10:28:35.799Z,16.88
2023-02-11T10:30:42.550Z,16.38
2023-02-11T10:32:49.576Z,13.65
2023-02-11T10:34:56.984Z,15.77
2023-02-11T10:37:00.325Z,16.52
2023-02-11T10:39:03.559Z,16.35
2023-02-11T10:41:06.505Z,16.50
2023-02-11T10:43:14.664Z,15.13
2023-02-11T10:45:23.582Z,16.13
2023-02-11T10:47:29.589Z,15.60
2023-02-11T10:49:38.392Z,16.23
2023-02-11T10:51:41.219Z,16.92
2023-02-11T10:53:44.871Z,16.58
2023-02-11T10:55:53.458Z,16.58
2023-02-11T10:57:59.613Z,16.58
2023-02-11T11:00:09.457Z,15.43
2023-02-11T11:02:24.523Z,15.05
2023-02-11T11:04:41.696Z,15.80
2023-02-11T11:06:44.593Z,16.52
2023-02-11T11:08:49.084Z,15.50
2023-02-11T11:11:04.883Z,15.48
2023-02-11T11:13:25.490Z,19.77
2023-02-11T11:15:31.567Z,17.63
2023-02-11T11:17:34.515Z,18.63
2023-02-11T11:19:39.159Z,17.08
2023-02-11T11:21:44.357Z,15.32
2023-02-11T11:23:53.793Z,15.77
2023-02-11T11:26:05.095Z,17.45
2023-02-11T11:28:19.885Z,18.50
2023-02-11T11:30:26.714Z,19.38
2023-02-11T11:32:33.289Z,23.45
2023-02-11T11:34:39.759Z,20.55
2023-02-11T11:36:42.636Z,22.02
2023-02-11T11:38:50.134Z,22.33
2023-02-11T11:41:14.557Z,21.80
2023-02-11T11:43:23.035Z,23.48
2023-02-11T11:45:27.590Z,21.98
2023-02-11T11:47:37.000Z,23.25
2023-02-11T11:49:44.951Z,24.42
2023-02-11T11:51:56.020Z,20.42
2023-02-11T11:54:02.334Z,20.20
2023-02-11T11:56:07.882Z,23.85
2023-02-11T11:58:16.380Z,23.73
2023-02-11T12:00:22.676Z,23.25
2023-02-11T12:02:51.946Z,24.17
2023-02-11T12:05:02.600Z,21.67
2023-02-11T12:07:18.801Z,23.58
2023-02-11T12:09:29.828Z,19.15
2023-02-11T12:11:42.730Z,21.48
2023-02-11T12:13:57.905Z,19.80
2023-02-11T12:16:11.310Z,18.33
2023-02-11T12:18:32.806Z,19.25
2023-02-11T12:20:44.530Z,19.15
2023-02-11T12:23:02.080Z,19.52
2023-02-11T12:25:27.236Z,21.55
2023-02-11T12:27:48.904Z,20.40
2023-02-11T12:30:04.308Z,18.05
2023-02-11T12:34:42.899Z,16.00
2023-02-11T12:37:02.817Z,17.92
2023-02-11T12:39:18.806Z,17.65
2023-02-11T12:41:53.324Z,18.15
2023-02-11T12:43:56.193Z,17.55
2023-02-11T12:46:23.947Z,15.57
2023-02-11T12:48:46.413Z,17.45
2023-02-11T12:50:59.219Z,16.40
2023-02-11T12:53:21.346Z,18.75
2023-02-11T12:55:26.807Z,18.40
2023-02-11T12:57:33.292Z,18.70
2023-02-11T12:59:48.736Z,17.88
2023-02-11T13:04:02.000Z,16.67
2023-02-11T13:06:09.343Z,16.58
2023-02-11T13:08:16.948Z,17.35
2023-02-11T13:10:30.935Z,17.42
2023-02-11T13:12:56.134Z,18.23
2023-02-11T13:15:04.070Z,17.27
2023-02-11T13:17:18.764Z,15.30
2023-02-11T13:19:27.785Z,17.60
2023-02-11T13:21:42.000Z,16.77
2023-02-11T13:23:51.089Z,16.30
2023-02-11T13:26:00.431Z,17.38
2023-02-11T13:28:23.698Z,14.70
2023-02-11T13:30:32.412Z,16.00
2023-02-11T13:33:06.517Z,16.20
2023-02-11T13:35:29.268Z,16.42
2023-02-11T13:37:38.100Z,16.15
2023-02-11T13:39:40.927Z,16.23
2023-02-11T13:41:45.099Z,15.57
2023-02-11T13:43:59.832Z,16.20
2023-02-11T13:46:04.510Z,15.60
2023-02-11T13:50:24.801Z,15.63
2023-02-11T13:52:30.607Z,13.05
2023-02-11T13:54:39.018Z,14.20
2023-02-11T13:56:44.037Z,13.50
2023-02-11T13:58:48.910Z,13.73
2023-02-11T14:03:41.687Z,11.98
2023-02-11T14:06:30.327Z,11.90
2023-02-11T14:08:50.503Z,11.82
2023-02-11T14:10:56.762Z,12.68
2023-02-11T14:13:22.939Z,13.35
2023-02-11T14:15:28.726Z,13.88
2023-02-11T14:17:33.861Z,14.48
2023-02-11T14:19:38.460Z,13.40
2023-02-11T14:21:44.061Z,13.45
2023-02-11T14:23:48.341Z,13.52
2023-02-11T14:26:26.797Z,12.60
2023-02-11T14:28:34.170Z,14.13
2023-02-11T14:30:47.411Z,13.55
2023-02-11T14:33:07.174Z,13.73
2023-02-11T14:35:18.241Z,12.40
2023-02-11T14:37:33.926Z,11.85
2023-02-11T14:39:56.941Z,11.02
2023-02-11T14:42:03.515Z,11.93
2023-02-11T14:44:14.065Z,12.98
2023-02-11T14:46:18.703Z,12.95
2023-02-11T14:48:28.335Z,12.02
2023-02-11T14:50:38.739Z,11.85
2023-02-11T14:52:44.164Z,12.50
2023-02-11T14:54:49.584Z,12.38
2023-02-11T14:57:11.109Z,11.02
2023-02-11T14:59:18.830Z,10.57
2023-02-11T15:01:29.040Z,9.65
2023-02-11T15:03:34.879Z,10.52
2023-02-11T15:05:37.867Z,11.15
2023-02-11T15:07:45.393Z,9.82
2023-02-11T15:09:51.163Z,9.07
2023-02-11T15:11:55.116Z,9.32
2023-02-11T15:14:02.744Z,9.80
2023-02-11T15:16:09.161Z,10.40
2023-02-11T15:18:22.630Z,9.48
2023-02-11T15:20:28.266Z,8.82
2023-02-11T15:22:36.775Z,10.80
2023-02-11T15:24:40.439Z,11.30
2023-02-11T15:26:43.264Z,9.52
2023-02-11T15:28:52.034Z,10.52
2023-02-11T15:31:01.684Z,13.10
2023-02-11T15:33:06.812Z,11.32
2023-02-11T15:35:13.594Z,11.15
2023-02-11T15:37:21.831Z,11.38
2023-02-11T15:39:32.452Z,11.43
2023-02-11T15:41:37.664Z,10.55
2023-02-11T15:43:45.530Z,12.80
2023-02-11T15:45:57.931Z,13.75
2023-02-11T15:48:09.109Z,14.10
2023-02-11T15:50:21.877Z,15.13
2023-02-11T15:52:27.406Z,13.77
2023-02-11T15:54:32.069Z,11.68
2023-02-11T15:56:43.254Z,11.38
2023-02-11T15:58:48.790Z,12.38
2023-02-11T16:00:59.544Z,13.25
2023-02-11T16:03:04.208Z,12.55
2023-02-11T16:05:10.345Z,12.63
2023-02-11T16:07:39.630Z,12.60
2023-02-11T16:09:43.815Z,11.05
2023-02-11T16:11:57.982Z,11.55
2023-02-11T16:14:04.570Z,11.27
2023-02-11T16:16:20.682Z,12.60
2023-02-11T16:18:39.377Z,12.38
2023-02-11T16:20:48.262Z,12.68
2023-02-11T16:22:51.271Z,11.85
2023-02-11T16:24:58.010Z,12.40
2023-02-11T16:27:02.658Z,11.02
2023-02-11T16:29:13.176Z,11.00
2023-02-11T16:31:16.287Z,9.98
2023-02-11T16:33:19.113Z,10.90
2023-02-11T16:35:23.343Z,11.27
2023-02-11T16:37:26.619Z,11.30
2023-02-11T16:39:29.434Z,11.25
2023-02-11T16:41:32.259Z,10.60
2023-02-11T16:43:35.076Z,11.40
2023-02-11T16:45:38.634Z,10.98
2023-02-11T16:47:42.421Z,11.63
2023-02-11T16:49:45.365Z,12.40
2023-02-11T16:51:52.728Z,12.05
2023-02-11T16:53:55.598Z,12.52
2023-02-11T16:55:58.329Z,11.90
2023-02-11T16:58:01.067Z,10.90
2023-02-11T17:00:06.302Z,13.75
2023-02-11T17:02:13.874Z,13.23
2023-02-11T17:04:20.187Z,12.10
2023-02-11T17:06:22.981Z,12.23
2023-02-11T17:08:27.269Z,18.95
2023-02-11T17:10:30.774Z,19.05
2023-02-11T17:12:33.580Z,22.13
2023-02-11T17:14:36.373Z,16.88
2023-02-11T17:16:39.292Z,15.43
2023-02-11T17:18:42.120Z,16.70
2023-02-11T17:20:44.949Z,14.25
2023-02-11T17:22:47.772Z,14.93
2023-02-11T17:24:51.930Z,15.18
2023-02-11T17:26:54.863Z,15.55
2023-02-11T17:28:57.652Z,15.07
2023-02-11T17:31:00.917Z,14.02
2023-02-11T17:33:03.924Z,13.82
2023-02-11T17:35:07.527Z,11.13
2023-02-11T17:37:10.304Z,16.08
2023-02-11T17:39:13.659Z,13.80
2023-02-11T17:41:17.844Z,14.15
2023-02-11T17:43:20.662Z,14.00
2023-02-11T17:45:23.602Z,14.10
2023-02-11T17:47:26.506Z,13.32
2023-02-11T17:49:29.279Z,12.18
2023-02-11T17:51:34.000Z,12.70
2023-02-11T17:53:36.799Z,12.82
2023-02-11T17:55:39.525Z,12.77
2023-02-11T17:57:44.209Z,12.00
2023-02-11T17:59:47.177Z,14.35
2023-02-11T18:01:50.072Z,13.82
2023-02-11T18:03:52.928Z,12.48
2023-02-11T18:06:00.738Z,12.65
2023-02-11T18:08:04.106Z,11.77
2023-02-11T18:10:08.071Z,10.60
2023-02-11T18:12:11.930Z,13.05
2023-02-11T18:14:16.118Z,12.73
2023-02-11T18:16:19.055Z,11.95
2023-02-11T18:18:21.996Z,12.13
2023-02-11T18:20:24.805Z,12.73
2023-02-11T18:22:27.936Z,12.00
2023-02-11T18:24:31.055Z,12.30
2023-02-11T18:26:33.900Z,12.60
2023-02-11T18:28:36.831Z,12.63
2023-02-11T18:30:41.179Z,10.73
2023-02-11T18:32:44.538Z,11.07
2023-02-11T18:34:47.354Z,10.88
2023-02-11T18:36:50.344Z,11.57
2023-02-11T18:38:54.189Z,10.30
2023-02-11T18:40:58.562Z,11.93
2023-02-11T18:43:01.313Z,11.18
2023-02-11T18:45:05.164Z,12.15
2023-02-11T18:47:09.314Z,11.75
2023-02-11T18:49:13.143Z,11.32
2023-02-11T18:51:18.634Z,12.40
2023-02-11T18:53:21.842Z,13.35
2023-02-11T18:55:25.882Z,13.35
2023-02-11T18:57:28.705Z,14.20
2023-02-11T18:59:31.655Z,13.18
2023-02-11T19:01:34.666Z,11.75
2023-02-11T19:03:38.880Z,12.40
2023-02-11T19:05:42.658Z,13.25
2023-02-11T19:07:45.481Z,15.35
2023-02-11T19:09:48.233Z,13.32
2023-02-11T19:11:51.173Z,12.65
2023-02-11T19:13:53.944Z,11.93
2023-02-11T19:15:56.685Z,13.27
2023-02-11T19:17:59.513Z,11.85
2023-02-11T19:20:05.961Z,12.90
2023-02-11T19:22:10.785Z,11.77
2023-02-11T19:26:18.220Z,12.48
2023-02-11T19:28:22.068Z,11.32
2023-02-11T19:30:24.901Z,11.75
2023-02-11T19:32:28.052Z,13.70
2023-02-11T19:34:30.962Z,13.02
2023-02-11T19:36:35.447Z,13.48
2023-02-11T19:38:39.128Z,12.15
2023-02-11T19:40:41.936Z,14.40
2023-02-11T19:42:44.844Z,18.50
2023-02-11T19:44:47.659Z,19.10
2023-02-11T19:46:52.779Z,14.52
2023-02-11T19:48:55.844Z,14.13
2023-02-11T19:50:58.700Z,12.35
2023-02-11T19:53:03.046Z,12.60
2023-02-11T19:55:06.474Z,12.73
2023-02-11T19:57:09.247Z,11.38
2023-02-11T19:59:12.453Z,12.00
2023-02-11T20:01:17.656Z,11.90
2023-02-11T20:03:20.589Z,12.85
2023-02-11T20:05:23.556Z,11.23
2023-02-11T20:07:26.351Z,10.65
2023-02-11T20:09:31.157Z,15.57
2023-02-11T20:11:34.548Z,13.45
2023-02-11T20:13:38.472Z,13.25
2023-02-11T20:15:41.285Z,13.57
2023-02-11T20:17:45.355Z,14.80
2023-02-11T20:19:48.156Z,13.63
2023-02-11T20:21:53.565Z,14.20
2023-02-11T20:23:56.405Z,15.07
2023-02-11T20:26:05.279Z,15.95
2023-02-11T20:28:08.021Z,16.65
2023-02-11T20:30:11.621Z,16.77
2023-02-11T20:32:15.638Z,15.85
2023-02-11T20:34:18.870Z,15.95
2023-02-11T20:36:23.900Z,14.75
2023-02-11T20:38:27.587Z,15.05
2023-02-11T20:40:30.374Z,15.50
2023-02-11T20:42:34.499Z,16.42
2023-02-11T20:44:37.628Z,15.68
2023-02-11T20:46:42.426Z,17.90
2023-02-11T20:50:48.417Z,17.42
2023-02-11T20:52:51.275Z,16.70
2023-02-11T20:54:54.071Z,15.80
2023-02-11T20:56:58.128Z,16.17
2023-02-11T20:59:03.806Z,15.73
2023-02-11T21:01:10.384Z,14.98
2023-02-11T21:03:13.279Z,14.35
2023-02-11T21:05:16.049Z,17.23
2023-02-11T21:07:19.364Z,15.48
2023-02-11T21:09:23.909Z,16.60
2023-02-11T21:11:26.807Z,15.77
2023-02-11T21:13:29.650Z,16.02
2023-02-11T21:15:33.763Z,17.15
2023-02-11T21:17:36.601Z,17.55
2023-02-11T21:19:39.481Z,16.88
2023-02-11T21:21:42.510Z,16.73
2023-02-11T21:23:45.338Z,17.02
2023-02-11T21:25:48.471Z,15.88
2023-02-11T21:27:51.277Z,16.65
2023-02-11T21:29:54.919Z,17.30
2023-02-11T21:31:59.102Z,17.80
2023-02-11T21:34:01.913Z,18.27
2023-02-11T21:36:07.689Z,18.20
2023-02-11T21:38:10.493Z,18.92
2023-02-11T21:40:14.847Z,19.45
2023-02-11T21:42:17.665Z,18.73
2023-02-11T21:44:20.476Z,17.67
2023-02-11T21:46:23.633Z,18.73
2023-02-11T21:48:28.307Z,18.08
2023-02-11T21:50:31.093Z,19.20
2023-02-11T21:52:33.895Z,19.88
2023-02-11T21:54:36.726Z,20.38
2023-02-11T21:56:40.541Z,18.88
2023-02-11T21:58:43.969Z,17.42
2023-02-11T22:00:46.783Z,18.00
2023-02-11T22:02:49.929Z,17.42
2023-02-11T22:04:54.145Z,18.23
2023-02-11T22:06:56.963Z,19.67
2023-02-11T22:09:03.026Z,19.25
2023-02-11T22:11:07.064Z,17.30
2023-02-11T22:13:09.868Z,18.50
2023-02-11T22:15:12.965Z,17.23
2023-02-11T22:17:15.782Z,19.95
2023-02-11T22:19:18.907Z,18.80
2023-02-11T22:21:23.926Z,17.60
2023-02-11T22:23:26.831Z,19.17
2023-02-11T22:25:29.620Z,19.00
2023-02-11T22:27:32.465Z,16.95
2023-02-11T22:29:35.311Z,18.33
2023-02-11T22:31:38.271Z,17.75
2023-02-11T22:33:41.729Z,18.63
2023-02-11T22:35:44.517Z,17.00
2023-02-11T22:37:48.673Z,17.15
2023-02-11T22:39:51.441Z,17.25
2023-02-11T22:41:56.428Z,17.55
2023-02-11T22:43:59.487Z,16.70
2023-02-11T22:46:03.308Z,16.27
2023-02-11T22:48:06.636Z,17.55
2023-02-11T22:50:09.995Z,17.88
2023-02-11T22:52:12.943Z,17.73
2023-02-11T22:54:18.421Z,18.10
2023-02-11T22:56:22.053Z,19.42
2023-02-11T22:58:25.681Z,18.98
2023-02-11T23:00:32.455Z,18.55
2023-02-11T23:02:35.294Z,18.50
2023-02-11T23:04:38.127Z,18.33
2023-02-11T23:06:41.086Z,18.98
2023-02-11T23:08:44.453Z,18.02
2023-02-11T23:10:49.220Z,19.15
2023-02-11T23:12:51.939Z,16.63
2023-02-11T23:14:54.724Z,16.60
2023-02-11T23:16:57.530Z,18.58
2023-02-11T23:19:01.507Z,21.98
2023-02-11T23:21:06.626Z,20.17
2023-02-11T23:23:09.619Z,18.08
2023-02-11T23:25:12.417Z,19.73
2023-02-11T23:27:16.572Z,19.88
2023-02-11T23:29:19.380Z,18.67
2023-02-11T23:31:24.379Z,20.38
2023-02-11T23:33:27.311Z,18.23
2023-02-11T23:35:30.155Z,19.95
2023-02-11T23:37:32.908Z,17.98
2023-02-11T23:39:35.953Z,19.08
2023-02-11T23:41:38.707Z,19.90
2023-02-11T23:43:42.848Z,21.40
2023-02-11T23:45:45.588Z,20.35
2023-02-11T23:47:48.510Z,18.05
2023-02-11T23:49:51.324Z,19.70
2023-02-11T23:51:54.126Z,19.40
2023-02-11T23:53:57.051Z,19.50
2023-02-11T23:55:59.846Z,21.85
2023-02-11T23:58:02.751Z,19.10
